< < Back
Terminal Aerodrome Forecast


Current Version              Previous Versions:   1  2  3  4  5  6  7  8  9  

Terminal Aerodrome Forecast

471
FTUS44 KBMX 242328
TAFTCL
TAF
KTCL 242328Z 2500/2524 26002KT P6SM SCT250
     FM251400 32006KT P6SM SCT050=

Latest METAR

464
SAUS70 KWBC 252100 RRN
MTRTCL
METAR KTCL 252053Z 00000KT 9SM CLR 35/23 A3003 RMK AO2 SLP167 T03500228
58016


USA.gov is the U.S. government's official web portal to all federal, state and local government web resources and services.